Time;durP1;ratioP1;P1;durP2;ratioP2;P2;SDS_P1;SDS_P2;PMS_P1;PMS_P2;Temp;Humidity;BMP_temperature;BMP_pressure;BME280_temperature;BME280_humidity;BME280_pressure;Samples;Min_cycle;Max_cycle;Signal;HPM_P1;HPM_P2
2021/08/11 00:00:46;;;;;;;6.97;3.30;;;;;;;15.62;72.51;100152.33;154045;1101;103135;-74
2021/08/11 00:03:51;;;;;;;5.43;3.80;;;;;;;15.56;72.76;100150.39;153966;1101;103125;-74
2021/08/11 00:06:56;;;;;;;7.73;3.87;;;;;;;15.50;73.03;100148.47;153954;1101;103277;-74
2021/08/11 00:10:01;;;;;;;7.57;3.90;;;;;;;15.44;72.59;100160.80;153967;1095;103119;-76
2021/08/11 00:13:06;;;;;;;5.73;3.73;;;;;;;15.37;72.72;100161.73;153946;1095;103285;-73
2021/08/11 00:16:11;;;;;;;6.47;4.00;;;;;;;15.31;72.46;100160.63;153998;1101;103496;-74
2021/08/11 00:19:15;;;;;;;6.50;3.63;;;;;;;15.22;72.43;100151.84;153986;1096;103250;-74
2021/08/11 00:22:20;;;;;;;5.83;3.37;;;;;;;15.09;72.67;100157.03;153981;1094;103119;-75
2021/08/11 00:25:26;;;;;;;6.10;3.87;;;;;;;15.06;72.50;100166.27;153994;1095;103247;-73
2021/08/11 00:28:31;;;;;;;4.33;3.33;;;;;;;15.07;72.80;100167.13;153928;1101;103186;-75
2021/08/11 00:31:36;;;;;;;6.37;4.53;;;;;;;15.06;72.46;100162.76;153974;1101;103135;-75
2021/08/11 00:34:42;;;;;;;6.57;4.07;;;;;;;15.03;72.79;100152.37;153952;1101;103214;-74
2021/08/11 00:37:46;;;;;;;6.10;3.85;;;;;;;14.99;72.41;100161.82;154012;1096;103136;-75
2021/08/11 00:40:53;;;;;;;7.70;4.23;;;;;;;14.92;72.40;100159.88;153992;1095;103133;-73
2021/08/11 00:43:58;;;;;;;6.63;4.00;;;;;;;14.86;72.49;100160.62;153964;1101;103287;-73
2021/08/11 00:47:07;;;;;;;6.20;3.87;;;;;;;14.81;72.49;100156.80;153986;1101;103132;-76
2021/08/11 00:50:14;;;;;;;9.20;3.83;;;;;;;14.80;72.78;100158.67;153992;1096;103220;-76
2021/08/11 00:53:25;;;;;;;7.87;4.00;;;;;;;14.81;72.42;100149.58;153935;1095;103221;-74
2021/08/11 00:56:33;;;;;;;5.65;3.90;;;;;;;14.81;72.60;100156.80;154104;1095;103131;-73
2021/08/11 00:59:40;;;;;;;7.90;3.77;;;;;;;14.78;72.23;100151.79;154124;1096;103182;-74
2021/08/11 01:02:51;;;;;;;7.00;3.93;;;;;;;14.71;72.02;100149.02;154050;1101;103288;-75
2021/08/11 01:06:00;;;;;;;6.03;4.23;;;;;;;14.57;72.57;100152.48;154019;1101;103117;-74
2021/08/11 01:09:07;;;;;;;3.83;3.43;;;;;;;14.48;72.34;100154.39;154011;1096;103215;-74
2021/08/11 01:12:16;;;;;;;10.00;4.00;;;;;;;14.41;72.50;100165.00;153966;1096;103087;-74
2021/08/11 01:15:21;;;;;;;5.03;3.60;;;;;;;14.36;72.61;100169.23;154018;1101;103544;-74
2021/08/11 01:18:27;;;;;;;5.97;3.40;;;;;;;14.36;72.28;100164.73;153974;1101;103211;-76
2021/08/11 01:21:39;;;;;;;8.27;3.77;;;;;;;14.35;72.26;100157.67;153954;1101;103144;-75
2021/08/11 01:24:56;;;;;;;4.97;3.40;;;;;;;14.33;72.27;100159.71;153988;1101;103213;-76
2021/08/11 01:28:28;;;;;;;5.00;3.77;;;;;;;14.30;72.27;100163.59;153980;1096;103227;-73
2021/08/11 01:31:48;;;;;;;7.73;3.93;;;;;;;14.27;72.07;100158.58;153961;1101;103262;-75
2021/08/11 01:34:55;;;;;;;6.70;4.17;;;;;;;14.20;72.24;100157.62;154025;1101;103135;-74
2021/08/11 01:38:02;;;;;;;7.37;4.20;;;;;;;14.13;72.35;100157.52;153992;1096;103224;-74
2021/08/11 01:41:13;;;;;;;5.00;3.20;;;;;;;14.05;72.36;100162.94;153986;1096;103301;-74
2021/08/11 01:44:21;;;;;;;6.63;3.80;;;;;;;14.06;72.27;100158.41;153998;1096;103136;-74
2021/08/11 01:47:29;;;;;;;9.47;3.27;;;;;;;13.99;71.95;100163.66;153972;1095;103192;-74
2021/08/11 01:50:38;;;;;;;5.00;3.60;;;;;;;13.95;72.22;100165.00;154111;1101;103122;-72
2021/08/11 01:53:44;;;;;;;7.43;4.00;;;;;;;13.93;72.26;100167.89;154078;1101;103192;-74
2021/08/11 01:56:51;;;;;;;5.67;4.20;;;;;;;13.92;72.08;100165.38;153987;1095;103192;-74
2021/08/11 01:59:56;;;;;;;9.90;3.77;;;;;;;13.90;71.79;100167.40;154026;1101;103129;-75
2021/08/11 02:03:04;;;;;;;6.13;4.10;;;;;;;13.84;71.99;100157.38;153943;1094;103275;-73
2021/08/11 02:06:09;;;;;;;8.10;3.73;;;;;;;13.79;72.16;100157.06;154030;1094;103141;-73
2021/08/11 02:09:16;;;;;;;4.57;3.27;;;;;;;13.74;72.23;100153.08;154044;1101;103582;-73
2021/08/11 02:12:22;;;;;;;4.70;3.23;;;;;;;13.75;72.13;100160.09;153990;1096;103208;-73
2021/08/11 02:15:27;;;;;;;6.57;3.07;;;;;;;13.74;72.07;100150.39;154012;1095;103556;-73
2021/08/11 02:18:32;;;;;;;5.17;3.80;;;;;;;13.71;72.03;100164.14;153993;1094;103193;-74
2021/08/11 02:21:41;;;;;;;7.50;3.93;;;;;;;13.74;71.93;100165.63;154016;1101;103157;-76
2021/08/11 02:24:46;;;;;;;6.57;4.03;;;;;;;13.66;72.17;100166.50;153991;1095;103280;-75
2021/08/11 02:27:57;;;;;;;6.63;3.90;;;;;;;13.49;72.40;100165.77;153981;1101;103119;-75
2021/08/11 02:31:06;;;;;;;;;;;;;;;13.51;72.35;100168.25;154014;1096;103192;-76
2021/08/11 02:34:19;;;;;;;5.50;3.60;;;;;;;13.52;72.01;100175.30;153930;1096;103181;-76
2021/08/11 02:37:40;;;;;;;3.93;3.13;;;;;;;13.50;72.39;100185.36;153973;1101;103217;-73
2021/08/11 02:40:49;;;;;;;6.87;3.57;;;;;;;13.53;72.39;100179.66;153985;1101;103254;-76
2021/08/11 02:43:59;;;;;;;6.03;4.10;;;;;;;13.55;72.12;100173.11;154026;1101;103177;-73
2021/08/11 02:47:05;;;;;;;7.67;3.80;;;;;;;13.51;72.22;100178.97;153981;1096;103135;-75
2021/08/11 02:50:14;;;;;;;6.25;4.45;;;;;;;13.48;71.75;100184.70;154016;1101;103299;-76
2021/08/11 02:53:27;;;;;;;5.37;3.93;;;;;;;13.46;72.33;100182.19;153997;1101;103601;-76
2021/08/11 02:56:32;;;;;;;5.37;4.20;;;;;;;13.46;72.22;100189.40;153978;1101;103157;-75
2021/08/11 02:59:39;;;;;;;7.27;3.77;;;;;;;13.47;72.59;100185.69;153979;1101;103184;-75
2021/08/11 03:02:46;;;;;;;4.05;3.20;;;;;;;13.47;72.47;100185.69;154025;1095;103125;-75
2021/08/11 03:05:51;;;;;;;5.90;3.20;;;;;;;13.50;72.39;100191.55;154009;1101;103274;-73
2021/08/11 03:08:57;;;;;;;6.03;3.47;;;;;;;13.54;72.45;100198.23;154053;1101;103211;-74
2021/08/11 03:12:06;;;;;;;4.85;3.40;;;;;;;13.57;72.42;100194.38;153945;1101;103128;-75
2021/08/11 03:15:13;;;;;;;6.10;3.70;;;;;;;13.61;72.41;100189.52;153983;1096;103135;-73
2021/08/11 03:18:20;;;;;;;6.00;4.10;;;;;;;13.65;72.60;100188.98;154016;1101;103187;-74
2021/08/11 03:21:25;;;;;;;7.33;4.57;;;;;;;13.62;72.39;100183.95;154031;1101;103280;-75
2021/08/11 03:24:30;;;;;;;6.60;4.43;;;;;;;13.61;72.67;100182.30;153997;1101;103233;-73
2021/08/11 03:27:35;;;;;;;8.60;4.50;;;;;;;13.59;72.93;100189.68;153982;1101;103675;-73
2021/08/11 03:30:43;;;;;;;5.03;3.53;;;;;;;13.64;72.43;100197.19;153974;1095;103163;-75
2021/08/11 03:33:48;;;;;;;4.23;3.23;;;;;;;13.70;72.42;100186.62;154017;1096;103171;-74
2021/08/11 03:36:53;;;;;;;6.80;3.40;;;;;;;13.70;72.35;100194.66;153991;1096;103141;-75
2021/08/11 03:39:59;;;;;;;4.03;3.30;;;;;;;13.71;72.41;100193.63;154123;1101;103611;-75
2021/08/11 03:43:04;;;;;;;5.83;3.60;;;;;;;13.71;72.23;100187.44;153964;1096;103135;-74
2021/08/11 03:46:10;;;;;;;6.23;4.00;;;;;;;13.69;72.52;100195.66;154048;1095;103118;-73
2021/08/11 03:49:15;;;;;;;6.03;4.13;;;;;;;13.74;72.50;100184.39;153992;1096;103128;-74
2021/08/11 03:52:21;;;;;;;5.87;4.07;;;;;;;13.74;72.55;100190.61;153987;1101;103313;-72
2021/08/11 03:55:31;;;;;;;7.07;4.53;;;;;;;13.87;72.56;100189.20;153963;1101;103187;-73
2021/08/11 03:58:36;;;;;;;10.73;4.70;;;;;;;14.04;72.46;100189.94;153984;1096;103157;-77
2021/08/11 04:01:43;;;;;;;7.50;5.33;;;;;;;14.13;72.49;100194.25;153985;1095;103181;-75
2021/08/11 04:04:48;;;;;;;7.27;5.00;;;;;;;14.27;72.80;100190.78;153993;1094;103567;-76
2021/08/11 04:07:53;;;;;;;6.40;4.50;;;;;;;14.44;72.67;100183.45;154070;1096;103174;-74
2021/08/11 04:10:58;;;;;;;7.27;5.33;;;;;;;14.62;72.71;100182.33;154039;1101;103155;-74
2021/08/11 04:14:03;;;;;;;5.90;4.10;;;;;;;14.80;72.54;100184.67;154049;1101;103199;-77
2021/08/11 04:17:08;;;;;;;4.83;3.90;;;;;;;15.03;72.72;100187.30;153986;1094;103189;-77
2021/08/11 04:20:15;;;;;;;5.60;4.70;;;;;;;15.25;72.67;100189.08;154073;1095;103192;-77
2021/08/11 04:23:20;;;;;;;4.85;4.00;;;;;;;15.44;72.67;100197.63;154110;1096;103187;-77
2021/08/11 04:26:25;;;;;;;7.47;5.10;;;;;;;15.63;72.31;100202.42;154076;1101;103189;-78
2021/08/11 04:29:30;;;;;;;7.10;4.85;;;;;;;15.84;72.96;100198.13;154028;1095;103192;-76
2021/08/11 04:32:37;;;;;;;6.67;5.40;;;;;;;16.04;72.91;100196.52;154046;1101;104176;-77
2021/08/11 04:35:42;;;;;;;7.23;5.97;;;;;;;16.30;73.17;100192.42;154062;1101;103570;-76
2021/08/11 04:38:47;;;;;;;9.07;5.73;;;;;;;16.63;73.31;100203.52;154021;1096;103297;-75
2021/08/11 04:41:52;;;;;;;7.17;5.93;;;;;;;16.96;73.37;100194.07;154024;1095;103191;-74
2021/08/11 04:44:57;;;;;;;8.27;7.03;;;;;;;17.32;73.65;100198.44;154012;1096;103119;-75
2021/08/11 04:48:02;;;;;;;7.93;6.10;;;;;;;17.70;73.66;100200.70;154053;1101;103237;-75
2021/08/11 04:51:07;;;;;;;8.53;6.40;;;;;;;18.10;73.50;100203.58;153967;1096;103104;-75
2021/08/11 04:54:12;;;;;;;7.10;5.77;;;;;;;18.48;73.61;100205.73;154012;1101;103261;-74
2021/08/11 04:57:17;;;;;;;6.43;4.73;;;;;;;18.78;73.47;100203.44;154019;1101;103107;-74
2021/08/11 05:00:22;;;;;;;6.90;5.30;;;;;;;19.05;73.35;100209.69;154007;1095;103123;-76
2021/08/11 05:03:27;;;;;;;6.40;5.20;;;;;;;19.28;73.28;100206.53;154024;1101;103124;-76
2021/08/11 05:06:32;;;;;;;7.33;5.47;;;;;;;19.40;73.11;100212.98;153991;1095;103196;-75
2021/08/11 05:09:37;;;;;;;6.27;5.13;;;;;;;19.34;72.74;100208.42;154080;1096;103253;-75
2021/08/11 05:12:42;;;;;;;6.83;5.30;;;;;;;19.19;72.94;100210.53;154113;1101;103131;-75
2021/08/11 05:15:46;;;;;;;5.93;4.87;;;;;;;19.06;73.00;100218.66;154088;1101;103075;-77
2021/08/11 05:18:51;;;;;;;6.55;4.90;;;;;;;18.96;73.06;100216.38;154136;1096;103131;-76
2021/08/11 05:21:56;;;;;;;6.13;4.97;;;;;;;18.87;72.90;100214.92;154127;1096;103142;-73
2021/08/11 05:25:01;;;;;;;5.80;4.90;;;;;;;18.82;73.18;100213.69;154012;1101;103304;-73
2021/08/11 05:28:06;;;;;;;6.10;4.73;;;;;;;18.87;73.32;100209.52;154075;1101;103557;-76
2021/08/11 05:31:11;;;;;;;7.60;6.10;;;;;;;19.01;73.38;100211.16;153973;1095;103183;-75
2021/08/11 05:34:16;;;;;;;6.73;4.97;;;;;;;19.32;73.31;100209.66;154070;1095;103128;-77
2021/08/11 05:37:21;;;;;;;6.47;4.67;;;;;;;19.70;73.17;100219.75;154045;1101;103214;-74
2021/08/11 05:40:26;;;;;;;6.23;5.23;;;;;;;19.95;73.06;100212.58;153965;1095;103252;-73
2021/08/11 05:43:31;;;;;;;5.90;5.10;;;;;;;19.98;72.69;100206.75;154103;1095;103131;-74
2021/08/11 05:46:36;;;;;;;6.80;5.07;;;;;;;19.92;72.26;100214.88;154100;1095;103167;-77
2021/08/11 05:49:41;;;;;;;7.33;4.80;;;;;;;19.76;72.37;100208.09;154090;1096;103140;-74
2021/08/11 05:52:46;;;;;;;6.00;4.80;;;;;;;19.60;72.58;100210.20;153972;1101;103133;-80
2021/08/11 05:55:51;;;;;;;7.03;4.97;;;;;;;19.45;72.62;100212.33;154184;1101;103270;-76
2021/08/11 05:58:56;;;;;;;6.73;4.63;;;;;;;19.35;72.96;100212.77;154097;1096;103127;-77
2021/08/11 06:02:01;;;;;;;7.00;4.83;;;;;;;19.40;73.15;100217.56;154071;1096;103144;-75
2021/08/11 06:05:08;;;;;;;7.43;5.00;;;;;;;19.43;73.28;100211.71;154085;1101;103234;-78
2021/08/11 06:08:13;;;;;;;5.90;5.00;;;;;;;19.48;73.39;100211.91;154099;1095;103483;-77
2021/08/11 06:11:18;;;;;;;6.67;5.00;;;;;;;19.53;73.34;100206.67;154161;1096;103808;-77
2021/08/11 06:14:23;;;;;;;5.60;5.00;;;;;;;19.57;73.27;100213.34;153954;1101;103221;-78
2021/08/11 06:17:27;;;;;;;6.87;4.60;;;;;;;19.52;73.25;100207.73;154146;1101;103126;-78
2021/08/11 06:20:32;;;;;;;5.53;4.50;;;;;;;19.45;73.69;100217.73;154151;1101;103224;-77
2021/08/11 06:23:37;;;;;;;5.30;4.80;;;;;;;19.54;73.56;100221.88;154100;1101;103136;-77
2021/08/11 06:26:42;;;;;;;5.73;4.80;;;;;;;19.51;73.59;100227.71;154001;1095;103128;-76
2021/08/11 06:29:47;;;;;;;6.30;4.70;;;;;;;19.59;73.26;100221.23;154014;1101;103136;-79
2021/08/11 06:32:51;;;;;;;7.37;4.60;;;;;;;19.65;73.80;100233.08;154071;1101;103193;-81
2021/08/11 06:35:56;;;;;;;7.20;4.73;;;;;;;19.66;73.32;100238.29;154012;1096;103217;-77
2021/08/11 06:39:01;;;;;;;6.83;4.80;;;;;;;19.51;73.14;100235.83;154000;1096;103138;-74
2021/08/11 06:42:06;;;;;;;8.07;4.57;;;;;;;19.51;73.70;100235.83;154313;1101;103261;-80
2021/08/11 06:45:29;;;;;;;5.80;4.57;;;;;;;19.58;73.62;100242.06;154143;1101;103136;-78
2021/08/11 06:48:35;;;;;;;5.83;5.20;;;;;;;19.65;73.48;100243.91;154077;1096;103551;-80
2021/08/11 06:51:40;;;;;;;6.73;4.70;;;;;;;19.69;73.53;100237.02;154033;1101;103192;-76
2021/08/11 06:54:45;;;;;;;5.33;4.13;;;;;;;19.80;73.84;100239.09;154101;1101;103120;-77
2021/08/11 06:57:50;;;;;;;6.07;5.03;;;;;;;19.94;73.56;100248.85;155107;1101;103271;-84
2021/08/11 07:00:59;;;;;;;6.30;5.10;;;;;;;20.10;72.87;100254.82;154552;1101;103151;-77
2021/08/11 07:04:04;;;;;;;6.53;4.83;;;;;;;20.18;73.07;100251.86;154309;1101;103128;-77
2021/08/11 07:07:09;;;;;;;6.90;4.90;;;;;;;20.18;73.26;100254.56;154025;1101;103199;-75
2021/08/11 07:10:15;;;;;;;7.13;4.90;;;;;;;20.28;72.13;100254.09;154639;1101;103263;-79
2021/08/11 07:13:21;;;;;;;6.90;5.05;;;;;;;20.19;71.67;100253.53;154423;1096;103304;-77
2021/08/11 07:16:26;;;;;;;5.50;4.97;;;;;;;20.13;72.24;100255.23;154624;1101;103199;-77
2021/08/11 07:19:31;;;;;;;8.60;4.83;;;;;;;20.23;72.93;100254.76;156663;1101;103096;-75
2021/08/11 07:22:36;;;;;;;5.60;4.40;;;;;;;20.45;72.45;100240.87;154680;1101;103131;-75
2021/08/11 07:25:41;;;;;;;6.23;5.20;;;;;;;20.60;71.98;100246.84;154344;1101;103123;-76
2021/08/11 07:28:46;;;;;;;5.27;4.27;;;;;;;20.67;71.95;100230.52;154365;1096;103266;-75
2021/08/11 07:31:51;;;;;;;6.10;4.37;;;;;;;20.81;71.93;100237.52;154031;1101;103126;-72
2021/08/11 07:34:56;;;;;;;5.63;4.10;;;;;;;20.92;71.76;100231.38;154050;1101;103203;-74
2021/08/11 07:38:01;;;;;;;4.80;4.03;;;;;;;21.10;72.04;100236.00;154256;1101;103195;-76
2021/08/11 07:41:06;;;;;;;6.37;4.80;;;;;;;21.18;70.55;100230.28;154540;1096;103573;-75
2021/08/11 07:44:11;;;;;;;4.87;4.10;;;;;;;21.03;71.19;100234.41;154191;1096;103199;-74
2021/08/11 07:47:16;;;;;;;6.00;4.70;;;;;;;21.22;70.59;100240.70;154059;1095;103169;-78
2021/08/11 07:50:22;;;;;;;5.40;4.50;;;;;;;21.12;70.04;100239.32;154161;1101;104763;-75
2021/08/11 07:53:27;;;;;;;6.83;4.90;;;;;;;20.96;69.93;100234.47;154042;1096;103125;-75
2021/08/11 07:56:32;;;;;;;5.17;4.30;;;;;;;20.90;69.75;100246.19;154010;1101;103601;-76
2021/08/11 07:59:37;;;;;;;5.20;4.50;;;;;;;20.87;69.18;100238.51;154159;1101;103204;-77
2021/08/11 08:02:42;;;;;;;7.30;4.70;;;;;;;20.70;69.54;100252.60;154049;1096;103196;-77
2021/08/11 08:05:47;;;;;;;5.20;3.80;;;;;;;20.77;70.62;100247.97;154021;1101;103124;-77
2021/08/11 08:08:51;;;;;;;5.90;4.10;;;;;;;20.96;69.61;100238.01;154231;1101;103115;-77
2021/08/11 08:11:56;;;;;;;5.40;3.90;;;;;;;21.00;69.97;100238.41;154140;1096;103223;-76
2021/08/11 08:15:01;;;;;;;5.73;4.57;;;;;;;21.12;69.81;100246.64;154240;1101;103196;-77
2021/08/11 08:18:06;;;;;;;6.63;5.07;;;;;;;21.13;68.80;100238.28;154058;1095;103214;-76
2021/08/11 08:21:11;;;;;;;6.60;5.60;;;;;;;21.17;69.89;100242.20;154146;1096;103133;-80
2021/08/11 08:24:16;;;;;;;7.10;4.93;;;;;;;21.17;68.82;100247.63;154105;1095;103582;-78
2021/08/11 08:27:21;;;;;;;10.03;5.20;;;;;;;21.08;69.22;100251.67;153986;1101;103669;-77
2021/08/11 08:30:26;;;;;;;5.07;4.00;;;;;;;21.28;68.94;100254.19;154016;1096;103372;-81
2021/08/11 08:33:31;;;;;;;5.87;4.10;;;;;;;21.49;69.14;100252.97;154017;1096;103197;-80
2021/08/11 08:36:36;;;;;;;5.50;4.40;;;;;;;21.61;68.00;100260.37;153998;1096;103187;-79
2021/08/11 08:39:41;;;;;;;4.93;4.43;;;;;;;21.67;68.89;100256.75;154105;1101;103122;-75
2021/08/11 08:42:46;;;;;;;4.83;4.07;;;;;;;21.82;68.28;100265.34;154226;1101;103195;-80
2021/08/11 08:45:52;;;;;;;6.40;4.50;;;;;;;22.00;67.59;100260.95;154070;1101;103269;-76
2021/08/11 08:48:59;;;;;;;4.63;3.80;;;;;;;21.85;66.14;100259.47;154027;1095;103218;-75
2021/08/11 08:52:05;;;;;;;6.90;4.77;;;;;;;21.56;66.83;100264.59;154198;1101;103189;-76
2021/08/11 08:55:11;;;;;;;5.30;4.70;;;;;;;21.55;67.50;100253.95;154272;1094;103122;-77
2021/08/11 08:58:15;;;;;;;4.67;4.17;;;;;;;21.65;67.59;100258.86;153973;1095;103126;-78
2021/08/11 09:01:20;;;;;;;6.00;4.35;;;;;;;21.85;66.63;100256.75;153970;1096;103175;-77
2021/08/11 09:04:25;;;;;;;5.57;4.10;;;;;;;21.95;63.95;100248.88;154112;1101;103123;-80
2021/08/11 09:07:30;;;;;;;4.30;3.57;;;;;;;21.90;63.69;100251.48;153954;1094;103553;-77
2021/08/11 09:10:37;;;;;;;4.90;3.50;;;;;;;22.09;64.82;100248.72;153974;1101;103144;-76
2021/08/11 09:13:42;;;;;;;3.73;3.33;;;;;;;22.18;63.39;100246.52;154024;1094;103192;-77
2021/08/11 09:16:52;;;;;;;4.37;3.47;;;;;;;22.24;63.73;100251.86;154061;1101;103270;-77
2021/08/11 09:19:57;;;;;;;4.93;3.40;;;;;;;22.39;63.43;100239.78;154012;1101;103134;-76
2021/08/11 09:23:02;;;;;;;4.43;3.83;;;;;;;22.43;64.91;100243.69;154094;1096;103116;-77
2021/08/11 09:26:08;;;;;;;4.87;4.00;;;;;;;22.48;63.29;100254.68;153969;1101;103582;-78
2021/08/11 09:29:13;;;;;;;4.47;3.47;;;;;;;22.46;64.19;100248.64;153940;1095;103197;-77
2021/08/11 09:32:18;;;;;;;5.50;3.40;;;;;;;22.44;64.30;100250.77;154009;1101;103187;-77
2021/08/11 09:35:25;;;;;;;5.35;3.80;;;;;;;22.23;62.81;100254.80;154100;1101;103192;-77
2021/08/11 09:38:29;;;;;;;5.07;3.00;;;;;;;22.12;60.46;100254.52;153958;1094;103122;-76
2021/08/11 09:41:35;;;;;;;3.07;2.77;;;;;;;22.10;59.83;100261.26;153965;1096;103156;-77
2021/08/11 09:44:41;;;;;;;3.50;2.65;;;;;;;22.23;62.96;100257.52;153997;1095;103197;-77
2021/08/11 09:48:04;;;;;;;3.27;2.33;;;;;;;22.35;62.43;100253.83;153947;1101;103261;-77
2021/08/11 09:51:10;;;;;;;3.10;2.53;;;;;;;22.51;62.75;100257.77;154008;1101;103195;-77
2021/08/11 09:54:15;;;;;;;3.23;2.60;;;;;;;22.62;62.26;100252.62;153968;1101;103110;-77
2021/08/11 09:57:31;;;;;;;2.73;2.17;;;;;;;22.84;61.83;100258.33;153968;1101;103110;-77
2021/08/11 10:00:41;;;;;;;2.70;2.30;;;;;;;22.70;57.57;100266.70;154026;1101;103189;-77
2021/08/11 10:03:59;;;;;;;3.93;2.53;;;;;;;22.68;58.90;100266.09;153991;1101;103192;-77
2021/08/11 10:07:10;;;;;;;5.03;2.27;;;;;;;22.83;60.78;100270.28;154019;1101;103143;-77
2021/08/11 10:10:15;;;;;;;3.40;2.40;;;;;;;22.94;60.51;100266.73;153968;1096;103551;-77
2021/08/11 10:13:23;;;;;;;3.87;2.40;;;;;;;22.87;59.97;100266.03;153961;1101;103480;-77
2021/08/11 10:16:30;;;;;;;3.17;2.50;;;;;;;22.60;58.19;100269.16;153999;1095;103166;-77
2021/08/11 10:19:35;;;;;;;3.30;2.30;;;;;;;22.42;57.90;100266.48;153966;1096;103262;-77
2021/08/11 10:22:41;;;;;;;2.20;2.00;;;;;;;22.46;58.33;100273.97;153954;1101;103133;-77
2021/08/11 10:25:48;;;;;;;3.00;1.90;;;;;;;22.50;58.01;100271.63;153950;1101;103559;-77
2021/08/11 10:28:54;;;;;;;3.37;2.03;;;;;;;22.70;57.07;100266.70;153931;1095;103130;-77
2021/08/11 10:32:02;;;;;;;2.20;2.00;;;;;;;22.98;59.06;100270.66;154006;1096;103192;-77
2021/08/11 10:35:08;;;;;;;1.93;1.73;;;;;;;23.23;58.55;100266.91;154010;1101;103287;-77
2021/08/11 10:38:14;;;;;;;3.23;1.90;;;;;;;23.41;55.93;100264.08;153997;1096;103132;-77
2021/08/11 10:41:20;;;;;;;2.40;1.80;;;;;;;23.33;56.72;100275.33;153993;1101;103311;-77
2021/08/11 10:44:25;;;;;;;2.10;1.70;;;;;;;23.22;56.77;100279.70;154002;1096;103168;-77
2021/08/11 10:47:35;;;;;;;1.90;1.70;;;;;;;23.28;56.08;100277.92;154004;1096;103222;-77
2021/08/11 10:50:47;;;;;;;1.90;1.35;;;;;;;23.32;56.07;100279.10;154005;1096;103266;-77
2021/08/11 10:54:06;;;;;;;2.30;1.60;;;;;;;23.31;52.49;100282.91;154012;1101;103214;-78
2021/08/11 10:57:11;;;;;;;2.13;1.70;;;;;;;23.16;55.15;100279.83;154038;1101;103116;-77
2021/08/11 11:00:41;;;;;;;2.97;1.60;;;;;;;23.10;53.27;100279.69;153958;1094;103167;-77
2021/08/11 11:03:53;;;;;;;2.10;1.60;;;;;;;23.20;55.22;100278.28;153988;1101;103137;-77
2021/08/11 11:07:18;;;;;;;2.80;1.73;;;;;;;23.42;55.11;100276.64;154024;1096;103180;-77
2021/08/11 11:10:30;;;;;;;3.33;1.97;;;;;;;23.62;53.83;100267.26;153987;1096;103139;-77
2021/08/11 11:13:42;;;;;;;2.45;1.80;;;;;;;23.73;53.44;100271.87;154032;1096;103101;-77
2021/08/11 11:17:12;;;;;;;2.97;1.70;;;;;;;23.75;52.95;100267.00;153992;1101;103464;-76
2021/08/11 11:20:21;;;;;;;1.83;1.67;;;;;;;23.70;53.94;100281.33;153969;1101;103138;-76
2021/08/11 11:23:35;;;;;;;2.80;1.80;;;;;;;23.52;52.85;100282.30;153960;1101;103231;-76
2021/08/11 11:26:40;;;;;;;2.50;1.70;;;;;;;23.47;52.78;100274.01;153997;1101;103039;-76
2021/08/11 11:29:50;;;;;;;3.40;1.80;;;;;;;23.41;52.82;100277.69;153994;1101;103162;-77
2021/08/11 11:32:55;;;;;;;2.23;1.80;;;;;;;23.26;53.94;100274.61;153980;1096;103227;-77
2021/08/11 11:36:25;;;;;;;3.03;1.80;;;;;;;23.31;52.28;100266.58;154073;1094;103144;-76
2021/08/11 11:39:31;;;;;;;2.37;1.90;;;;;;;23.32;50.55;100273.66;153999;1096;103103;-75
2021/08/11 11:42:36;;;;;;;2.47;2.20;;;;;;;23.05;52.01;100289.63;154098;1096;103125;-77
2021/08/11 11:45:48;;;;;;;2.93;2.40;;;;;;;22.83;52.56;100278.45;154077;1101;103160;-77
2021/08/11 11:49:19;;;;;;;3.50;2.30;;;;;;;22.79;53.40;100279.95;154093;1101;103211;-76
2021/08/11 11:52:25;;;;;;;2.70;1.95;;;;;;;23.03;52.36;100280.86;154707;1101;103158;-76
2021/08/11 11:55:32;;;;;;;2.63;2.10;;;;;;;23.24;52.83;100280.28;154274;1101;103273;-75
2021/08/11 11:58:44;;;;;;;3.63;2.17;;;;;;;23.41;53.45;100274.14;154120;1101;103244;-74
2021/08/11 12:01:50;;;;;;;2.40;2.10;;;;;;;23.53;52.77;100288.57;154079;1101;103125;-74
2021/08/11 12:05:03;;;;;;;2.87;2.20;;;;;;;23.44;52.06;100288.12;154073;1096;103331;-76
2021/08/11 12:08:13;;;;;;;2.73;2.03;;;;;;;23.38;52.73;100297.20;154234;1101;103131;-75
2021/08/11 12:11:19;;;;;;;3.30;2.10;;;;;;;23.31;52.45;100288.35;154131;1096;103211;-75
2021/08/11 12:14:27;;;;;;;2.37;1.93;;;;;;;23.23;52.81;100288.69;154143;1094;103243;-75
2021/08/11 12:17:32;;;;;;;2.30;2.10;;;;;;;23.19;53.05;100295.66;154121;1096;103124;-75
2021/08/11 12:20:38;;;;;;;2.60;2.13;;;;;;;23.24;53.28;100287.63;154091;1101;103126;-75
2021/08/11 12:23:44;;;;;;;2.43;1.90;;;;;;;23.26;53.08;100293.67;154099;1101;103143;-76
2021/08/11 12:26:50;;;;;;;2.40;1.93;;;;;;;23.15;52.50;100294.48;154176;1101;103516;-76
2021/08/11 12:30:17;;;;;;;2.10;1.90;;;;;;;23.16;51.52;100301.59;154146;1096;103211;-75
2021/08/11 12:33:23;;;;;;;3.03;1.90;;;;;;;23.31;51.05;100293.80;154071;1101;103096;-74
2021/08/11 12:36:31;;;;;;;2.20;1.80;;;;;;;23.46;51.23;100296.02;154024;1095;103123;-76
2021/08/11 12:39:39;;;;;;;1.80;1.70;;;;;;;23.67;51.51;100286.42;153994;1101;103575;-76
2021/08/11 12:42:55;;;;;;;1.90;1.60;;;;;;;23.83;48.47;100284.91;153946;1101;103267;-76
2021/08/11 12:46:02;;;;;;;2.30;1.63;;;;;;;23.91;51.35;100282.62;154009;1101;103100;-77
2021/08/11 12:49:19;;;;;;;2.50;2.20;;;;;;;23.92;50.49;100288.89;154049;1101;103126;-77
2021/08/11 12:52:26;;;;;;;2.70;2.00;;;;;;;23.64;51.05;100297.81;154317;1096;103200;-77
2021/08/11 12:55:35;;;;;;;2.73;1.93;;;;;;;23.13;48.42;100298.28;153982;1101;103259;-77
2021/08/11 12:58:59;;;;;;;2.27;1.90;;;;;;;22.90;51.14;100296.33;154021;1096;103394;-77
2021/08/11 13:02:21;;;;;;;2.17;1.80;;;;;;;22.79;51.75;100290.83;154046;1101;103165;-76
2021/08/11 13:05:26;;;;;;;2.07;1.80;;;;;;;22.73;52.01;100303.50;153967;1096;103141;-77
2021/08/11 13:08:40;;;;;;;3.10;1.85;;;;;;;22.63;52.37;100301.31;153966;1096;103202;-77
2021/08/11 13:11:58;;;;;;;2.40;1.90;;;;;;;22.51;52.43;100293.12;154075;1101;103155;-77
2021/08/11 13:15:04;;;;;;;2.73;1.90;;;;;;;22.40;52.01;100290.36;153986;1096;103278;-76
2021/08/11 13:18:09;;;;;;;2.53;1.90;;;;;;;22.37;52.80;100288.13;153986;1101;103169;-77
2021/08/11 13:21:14;;;;;;;2.50;2.27;;;;;;;22.55;52.75;100290.77;153978;1096;103222;-76
2021/08/11 13:24:19;;;;;;;2.57;1.90;;;;;;;22.71;52.13;100284.69;153969;1101;103474;-76
2021/08/11 13:27:23;;;;;;;2.23;1.90;;;;;;;22.69;52.32;100281.38;154011;1095;103200;-77
2021/08/11 13:30:29;;;;;;;9.37;2.13;;;;;;;22.74;52.07;100291.54;153977;1101;103196;-77
2021/08/11 13:33:34;;;;;;;2.20;1.80;;;;;;;22.83;52.20;100287.43;153978;1096;103199;-76
2021/08/11 13:36:38;;;;;;;2.60;2.03;;;;;;;22.97;51.99;100289.94;154001;1101;103190;-76
2021/08/11 13:39:44;;;;;;;2.10;1.60;;;;;;;23.01;52.18;100283.78;153948;1096;103130;-77
2021/08/11 13:42:49;;;;;;;2.57;2.17;;;;;;;22.99;50.57;100285.91;153957;1101;103104;-77
2021/08/11 13:45:53;;;;;;;6.55;5.90;;;;;;;22.92;51.20;100290.63;153932;1101;103174;-77
2021/08/11 13:48:58;;;;;;;5.50;5.00;;;;;;;22.93;51.40;100295.02;153957;1096;103125;-77
2021/08/11 13:52:03;;;;;;;3.17;1.93;;;;;;;22.87;51.68;100295.96;153926;1101;103153;-77
2021/08/11 13:55:10;;;;;;;9.30;7.37;;;;;;;22.80;51.55;100293.33;153957;1101;103131;-77
2021/08/11 13:58:15;;;;;;;15.70;14.10;;;;;;;22.77;51.16;100285.65;153983;1094;103496;-77
2021/08/11 14:01:20;;;;;;;31.00;27.53;;;;;;;22.73;49.39;100282.56;153986;1096;103288;-76
2021/08/11 14:04:24;;;;;;;4.50;3.90;;;;;;;22.78;49.75;100284.57;153966;1101;103115;-76
2021/08/11 14:07:31;;;;;;;3.53;2.17;;;;;;;22.83;48.16;100297.49;153918;1101;103125;-76
2021/08/11 14:10:36;;;;;;;5.00;3.20;;;;;;;23.01;50.16;100277.52;153923;1096;103130;-76